createdAt,value
2023-02-26T00:02:10.928Z,21.60
2023-02-26T00:04:39.010Z,18.50
2023-02-26T00:07:07.495Z,18.30
2023-02-26T00:09:35.602Z,19.90
2023-02-26T00:12:03.946Z,17.00
2023-02-26T00:14:33.106Z,21.70
2023-02-26T00:21:18.320Z,20.80
2023-02-26T00:23:46.814Z,17.20
2023-02-26T00:26:17.041Z,19.30
2023-02-26T00:28:46.076Z,17.40
2023-02-26T00:31:15.482Z,18.40
2023-02-26T00:33:44.588Z,16.40
2023-02-26T00:36:29.950Z,19.40
2023-02-26T00:39:49.269Z,19.70
2023-02-26T00:42:18.076Z,20.40
2023-02-26T00:44:46.785Z,19.20
2023-02-26T00:47:37.053Z,19.30
2023-02-26T00:50:17.426Z,15.20
2023-02-26T00:52:58.312Z,20.30
2023-02-26T00:55:28.376Z,22.40
2023-02-26T00:57:57.827Z,19.20
2023-02-26T01:00:26.258Z,17.00
2023-02-26T01:02:54.706Z,16.70
2023-02-26T01:05:23.049Z,15.70
2023-02-26T01:08:03.398Z,18.90
2023-02-26T01:10:32.989Z,12.70
2023-02-26T01:13:01.402Z,12.80
2023-02-26T01:15:33.166Z,17.20
2023-02-26T01:18:22.255Z,17.80
2023-02-26T01:20:54.601Z,18.40
2023-02-26T01:23:26.381Z,20.30
2023-02-26T01:26:06.956Z,20.20
2023-02-26T01:28:35.511Z,17.50
2023-02-26T01:31:05.722Z,19.20
2023-02-26T01:33:41.727Z,16.30
2023-02-26T01:36:21.580Z,18.10
2023-02-26T01:39:17.957Z,18.90
2023-02-26T01:41:56.741Z,20.70
2023-02-26T01:44:51.000Z,17.60
2023-02-26T01:47:38.985Z,21.20
2023-02-26T01:50:16.051Z,20.80
2023-02-26T01:52:50.490Z,20.40
2023-02-26T01:55:21.352Z,17.50
2023-02-26T01:57:50.087Z,19.60
2023-02-26T02:00:19.107Z,16.10
2023-02-26T02:02:48.619Z,13.30
2023-02-26T02:05:22.110Z,16.70
2023-02-26T02:07:50.477Z,15.70
2023-02-26T02:10:18.764Z,16.10
2023-02-26T02:12:56.190Z,13.50
2023-02-26T02:15:27.200Z,17.70
2023-02-26T02:18:30.273Z,13.50
2023-02-26T02:21:13.701Z,14.60
2023-02-26T02:24:19.951Z,15.30
2023-02-26T02:27:04.331Z,14.10
2023-02-26T02:29:48.121Z,12.60
2023-02-26T02:32:24.353Z,15.00
2023-02-26T02:34:55.590Z,13.90
2023-02-26T02:37:34.701Z,13.30
2023-02-26T02:40:09.140Z,14.80
2023-02-26T02:42:43.918Z,10.70
2023-02-26T02:45:20.232Z,11.40
2023-02-26T02:47:51.148Z,16.10
2023-02-26T02:50:45.926Z,16.40
2023-02-26T02:53:15.505Z,13.50
2023-02-26T02:55:49.093Z,13.10
2023-02-26T02:58:22.664Z,14.90
2023-02-26T03:00:54.804Z,14.10
2023-02-26T03:03:39.157Z,17.50
2023-02-26T03:06:07.737Z,13.70
2023-02-26T03:08:41.484Z,15.90
2023-02-26T03:11:10.980Z,14.40
2023-02-26T03:13:40.451Z,16.60
2023-02-26T03:16:20.504Z,18.30
2023-02-26T03:19:07.588Z,18.30
2023-02-26T03:21:44.017Z,15.40
2023-02-26T03:24:31.100Z,16.20
2023-02-26T03:27:25.954Z,15.30
2023-02-26T03:30:19.436Z,17.50
2023-02-26T03:33:09.047Z,16.30
2023-02-26T03:35:47.726Z,14.20
2023-02-26T03:38:35.954Z,11.90
2023-02-26T03:41:10.606Z,15.40
2023-02-26T03:43:48.227Z,14.00
2023-02-26T03:46:21.034Z,15.50
2023-02-26T03:48:51.457Z,16.00
2023-02-26T03:51:21.847Z,14.00
2023-02-26T03:54:03.307Z,19.70
2023-02-26T03:56:42.303Z,19.60
2023-02-26T03:59:30.583Z,19.00
2023-02-26T04:02:38.680Z,17.00
2023-02-26T04:05:16.719Z,16.10
2023-02-26T04:07:46.024Z,17.30
2023-02-26T04:10:15.960Z,19.10
2023-02-26T04:12:44.244Z,16.80
2023-02-26T04:15:13.251Z,22.30
2023-02-26T04:17:41.954Z,17.30
2023-02-26T04:20:11.152Z,15.30
2023-02-26T04:22:39.450Z,16.80
2023-02-26T04:25:09.224Z,15.40
2023-02-26T04:27:38.251Z,19.50
2023-02-26T04:30:07.581Z,18.80
2023-02-26T04:32:36.180Z,16.80
2023-02-26T04:35:04.766Z,18.70
2023-02-26T04:37:34.146Z,17.40
2023-02-26T04:40:02.621Z,21.90
2023-02-26T04:42:34.019Z,18.50
2023-02-26T04:45:02.303Z,17.30
2023-02-26T04:47:31.166Z,14.30
2023-02-26T04:49:59.160Z,15.30
2023-02-26T04:52:29.997Z,16.00
2023-02-26T04:54:58.451Z,18.40
2023-02-26T04:57:27.021Z,23.40
2023-02-26T04:59:57.137Z,21.80
2023-02-26T05:02:29.034Z,19.80
2023-02-26T05:04:57.255Z,19.90
2023-02-26T05:07:25.680Z,16.10
2023-02-26T05:09:54.182Z,21.00
2023-02-26T05:12:22.602Z,20.10
2023-02-26T05:14:50.862Z,21.40
2023-02-26T05:17:19.054Z,17.70
2023-02-26T05:19:47.461Z,18.50
2023-02-26T05:22:21.670Z,19.60
2023-02-26T05:24:50.000Z,20.60
2023-02-26T05:27:18.401Z,19.10
2023-02-26T05:29:47.853Z,15.90
2023-02-26T05:32:16.905Z,16.00
2023-02-26T05:34:44.991Z,15.50
2023-02-26T05:37:13.313Z,15.90
2023-02-26T05:39:43.666Z,18.70
2023-02-26T05:42:11.698Z,17.60
2023-02-26T05:44:39.812Z,17.30
2023-02-26T05:47:08.793Z,19.30
2023-02-26T05:49:42.024Z,14.40
2023-02-26T05:52:10.556Z,18.80
2023-02-26T05:54:38.679Z,14.90
2023-02-26T05:57:09.560Z,15.40
2023-02-26T05:59:40.427Z,16.50
2023-02-26T06:02:08.533Z,16.20
2023-02-26T06:04:36.719Z,14.60
2023-02-26T06:07:05.298Z,16.10
2023-02-26T06:09:33.826Z,17.60
2023-02-26T06:12:05.407Z,17.20
2023-02-26T06:14:34.800Z,15.70
2023-02-26T06:17:04.460Z,16.40
2023-02-26T06:19:35.031Z,15.70
2023-02-26T06:22:03.060Z,13.70
2023-02-26T06:24:31.140Z,13.60
2023-02-26T06:26:59.184Z,14.10
2023-02-26T06:29:27.287Z,15.20
2023-02-26T06:31:57.745Z,15.60
2023-02-26T06:34:25.963Z,18.80
2023-02-26T06:36:54.032Z,16.00
2023-02-26T06:39:22.623Z,19.00
2023-02-26T06:41:50.825Z,16.40
2023-02-26T06:44:19.229Z,16.10
2023-02-26T06:46:47.370Z,19.90
2023-02-26T06:49:16.376Z,17.40
2023-02-26T06:51:44.828Z,17.10
2023-02-26T06:54:14.540Z,19.40
2023-02-26T06:56:43.321Z,20.10
2023-02-26T06:59:11.432Z,15.40
2023-02-26T07:01:39.970Z,16.00
2023-02-26T07:04:07.964Z,20.50
2023-02-26T07:06:39.312Z,16.40
2023-02-26T07:09:07.606Z,16.90
2023-02-26T07:11:35.642Z,17.20
2023-02-26T07:14:03.904Z,18.10
2023-02-26T07:16:32.044Z,16.90
2023-02-26T07:19:00.645Z,20.10
2023-02-26T07:21:29.148Z,18.00
2023-02-26T07:24:00.287Z,19.20
2023-02-26T07:26:32.469Z,18.90
2023-02-26T07:29:00.897Z,18.10
2023-02-26T07:31:29.389Z,18.60
2023-02-26T07:33:57.539Z,17.50
2023-02-26T07:36:25.879Z,15.90
2023-02-26T07:38:54.232Z,21.20
2023-02-26T07:41:22.598Z,15.00
2023-02-26T07:43:50.920Z,16.70
2023-02-26T07:46:19.075Z,24.70
2023-02-26T07:48:47.291Z,18.60
2023-02-26T07:51:15.554Z,18.60
2023-02-26T07:53:44.051Z,20.30
2023-02-26T07:56:13.034Z,16.90
2023-02-26T07:58:41.750Z,16.60
2023-02-26T08:01:09.904Z,14.10
2023-02-26T08:03:40.439Z,18.90
2023-02-26T08:06:09.302Z,22.20
2023-02-26T08:08:39.889Z,18.30
2023-02-26T08:11:08.400Z,16.30
2023-02-26T08:13:36.517Z,16.50
2023-02-26T08:16:06.574Z,11.90
2023-02-26T08:18:34.756Z,15.00
2023-02-26T08:21:02.971Z,17.30
2023-02-26T08:23:33.274Z,20.70
2023-02-26T08:26:05.595Z,16.90
2023-02-26T08:28:33.860Z,21.70
2023-02-26T08:31:05.195Z,16.40
2023-02-26T08:33:35.633Z,18.70
2023-02-26T08:36:04.487Z,17.30
2023-02-26T08:38:33.206Z,15.80
2023-02-26T08:41:01.379Z,17.30
2023-02-26T08:43:30.979Z,17.50
2023-02-26T08:46:00.254Z,19.00
2023-02-26T08:48:29.221Z,16.00
2023-02-26T08:50:57.664Z,20.10
2023-02-26T08:53:26.605Z,18.40
2023-02-26T08:55:54.732Z,22.90
2023-02-26T08:58:22.824Z,20.30
2023-02-26T09:00:51.333Z,18.10
2023-02-26T09:03:20.111Z,21.60
2023-02-26T09:05:48.248Z,19.30
2023-02-26T09:08:17.675Z,20.20
2023-02-26T09:10:46.138Z,20.10
2023-02-26T09:13:15.546Z,20.30
2023-02-26T09:15:43.648Z,21.70
2023-02-26T09:18:15.751Z,21.40
2023-02-26T09:20:44.734Z,19.50
2023-02-26T09:23:13.535Z,14.40
2023-02-26T09:25:41.991Z,15.60
2023-02-26T09:28:10.198Z,17.50
2023-02-26T09:30:40.115Z,14.40
2023-02-26T09:33:09.734Z,16.60
2023-02-26T09:35:38.379Z,16.80
2023-02-26T09:38:10.732Z,14.60
2023-02-26T09:41:01.774Z,16.10
2023-02-26T09:43:59.633Z,18.70
2023-02-26T09:46:47.204Z,17.10
2023-02-26T09:49:40.598Z,17.00
2023-02-26T09:52:33.834Z,19.10
2023-02-26T09:55:15.593Z,17.60
2023-02-26T09:57:45.533Z,18.80
2023-02-26T10:00:24.822Z,18.50
2023-02-26T10:03:11.385Z,16.60
2023-02-26T10:06:04.840Z,17.60
2023-02-26T10:09:02.920Z,19.50
2023-02-26T10:11:47.454Z,20.30
2023-02-26T10:14:24.480Z,19.70
2023-02-26T10:16:55.297Z,16.10
2023-02-26T10:19:27.686Z,16.50
2023-02-26T10:22:06.757Z,14.80
2023-02-26T10:24:47.255Z,23.70
2023-02-26T10:27:17.070Z,20.90
2023-02-26T10:29:46.314Z,16.30
2023-02-26T10:32:33.288Z,14.40
2023-02-26T10:35:09.907Z,13.50
2023-02-26T10:37:52.458Z,13.00
2023-02-26T10:40:43.748Z,17.00
2023-02-26T10:43:30.452Z,18.40
2023-02-26T10:46:37.352Z,17.40
2023-02-26T10:49:25.895Z,14.60
2023-02-26T10:51:55.134Z,16.50
2023-02-26T10:54:29.598Z,13.20
2023-02-26T10:56:57.712Z,22.10
2023-02-26T10:59:28.533Z,17.80
2023-02-26T11:01:56.916Z,14.60
2023-02-26T11:04:26.676Z,17.20
2023-02-26T11:06:57.636Z,12.70
2023-02-26T11:11:58.197Z,12.70
2023-02-26T11:14:28.700Z,12.80
2023-02-26T11:17:38.780Z,13.40
2023-02-26T11:20:39.638Z,11.70
2023-02-26T11:23:11.481Z,15.10
2023-02-26T11:25:41.545Z,15.30
2023-02-26T11:28:32.866Z,16.20
2023-02-26T11:31:02.602Z,16.10
2023-02-26T11:33:39.348Z,14.80
2023-02-26T11:36:11.562Z,14.90
2023-02-26T11:38:40.657Z,15.90
2023-02-26T11:41:09.047Z,12.60
2023-02-26T11:43:44.406Z,12.80
2023-02-26T11:46:13.257Z,13.00
2023-02-26T11:48:45.390Z,14.00
2023-02-26T11:51:24.416Z,14.00
2023-02-26T11:53:57.755Z,11.40
2023-02-26T11:56:36.056Z,11.90
2023-02-26T11:59:21.432Z,12.70
2023-02-26T12:01:53.230Z,11.90
2023-02-26T12:04:23.120Z,11.60
2023-02-26T12:06:54.682Z,11.20
2023-02-26T12:09:23.236Z,13.50
2023-02-26T12:12:16.711Z,14.80
2023-02-26T12:15:08.335Z,15.20
2023-02-26T12:18:06.671Z,17.40
2023-02-26T12:21:05.619Z,13.40
2023-02-26T12:23:49.962Z,12.10
2023-02-26T12:26:29.014Z,12.20
2023-02-26T12:29:29.426Z,16.10
2023-02-26T12:32:39.116Z,11.60
2023-02-26T12:35:34.764Z,14.00
2023-02-26T12:38:43.312Z,13.70
2023-02-26T12:41:23.784Z,14.00
2023-02-26T12:43:55.836Z,15.20
2023-02-26T12:46:36.041Z,14.30
2023-02-26T12:51:55.812Z,16.50
2023-02-26T12:54:36.387Z,13.10
2023-02-26T12:57:13.378Z,20.20
2023-02-26T13:00:13.078Z,16.60
2023-02-26T13:03:02.106Z,17.60
2023-02-26T13:05:59.436Z,16.70
2023-02-26T13:08:53.827Z,17.80
2023-02-26T13:11:38.215Z,13.50
2023-02-26T13:14:21.843Z,14.00
2023-02-26T13:16:54.881Z,14.70
2023-02-26T13:19:29.506Z,14.60
2023-02-26T13:22:00.763Z,14.10
2023-02-26T13:24:43.050Z,15.50
2023-02-26T13:27:12.108Z,15.50
2023-02-26T13:29:47.903Z,7.40
2023-02-26T13:32:46.926Z,13.10
2023-02-26T13:37:55.795Z,14.00
2023-02-26T13:43:17.867Z,16.50
2023-02-26T13:46:17.463Z,16.10
2023-02-26T13:48:50.086Z,12.90
2023-02-26T13:51:37.949Z,15.70
2023-02-26T13:54:29.383Z,13.10
2023-02-26T13:57:21.419Z,15.20
2023-02-26T14:00:01.356Z,15.20
2023-02-26T14:02:44.804Z,15.90
2023-02-26T14:05:48.326Z,14.10
2023-02-26T14:08:26.552Z,11.80
2023-02-26T14:11:05.252Z,13.00
2023-02-26T14:13:40.482Z,12.10
2023-02-26T14:16:12.665Z,13.40
2023-02-26T14:18:50.324Z,14.60
2023-02-26T14:22:18.393Z,13.00
2023-02-26T14:25:00.918Z,13.50
2023-02-26T14:27:40.679Z,13.20
2023-02-26T14:30:09.311Z,15.60
2023-02-26T14:33:01.523Z,15.40
2023-02-26T14:35:40.690Z,14.60
2023-02-26T14:38:13.087Z,16.00
2023-02-26T14:40:55.648Z,25.60
2023-02-26T14:43:46.410Z,19.60
2023-02-26T14:46:14.939Z,18.50
2023-02-26T14:48:42.948Z,24.30
2023-02-26T14:51:29.849Z,12.00
2023-02-26T14:54:14.469Z,14.80
2023-02-26T14:56:52.497Z,15.20
2023-02-26T14:59:26.724Z,16.40
2023-02-26T15:02:00.931Z,14.30
2023-02-26T15:05:03.499Z,14.90
2023-02-26T15:07:44.566Z,18.30
2023-02-26T15:10:25.394Z,14.90
2023-02-26T15:13:22.122Z,15.80
2023-02-26T15:16:12.062Z,28.50
2023-02-26T15:18:54.520Z,18.30
2023-02-26T15:21:32.584Z,20.30
2023-02-26T15:24:00.884Z,20.00
2023-02-26T15:26:36.422Z,21.10
2023-02-26T15:29:08.497Z,32.20
2023-02-26T15:31:42.673Z,34.90
2023-02-26T15:34:15.737Z,19.30
2023-02-26T15:36:51.440Z,20.50
2023-02-26T15:39:23.509Z,22.40
2023-02-26T15:41:53.008Z,20.60
2023-02-26T15:44:27.418Z,22.80
2023-02-26T15:47:04.657Z,20.70
2023-02-26T15:49:38.538Z,20.30
2023-02-26T15:52:08.096Z,18.50
2023-02-26T15:54:45.013Z,19.40
2023-02-26T15:57:15.719Z,18.60
2023-02-26T15:59:45.857Z,17.90
2023-02-26T16:02:20.405Z,22.40
2023-02-26T16:04:48.951Z,19.00
2023-02-26T16:07:17.067Z,23.00
2023-02-26T16:09:46.852Z,27.80
2023-02-26T16:12:25.874Z,24.10
2023-02-26T16:14:59.278Z,26.90
2023-02-26T16:17:32.563Z,21.30
2023-02-26T16:20:03.593Z,21.10
2023-02-26T16:22:40.668Z,20.10
2023-02-26T16:25:19.498Z,21.60
2023-02-26T16:28:03.777Z,23.30
2023-02-26T16:30:35.965Z,25.60
2023-02-26T16:33:09.881Z,38.80
2023-02-26T16:35:42.171Z,89.30
2023-02-26T16:38:24.311Z,36.40
2023-02-26T16:41:06.144Z,24.80
2023-02-26T16:43:49.540Z,26.80
2023-02-26T16:46:42.941Z,27.90
2023-02-26T16:49:34.018Z,21.00
2023-02-26T16:52:02.337Z,21.20
2023-02-26T16:54:38.670Z,20.90
2023-02-26T16:57:20.622Z,17.60
2023-02-26T16:59:57.766Z,21.30
2023-02-26T17:02:32.020Z,19.10
2023-02-26T17:05:02.495Z,19.40
2023-02-26T17:07:32.187Z,19.70
2023-02-26T17:10:13.936Z,27.20
2023-02-26T17:12:51.094Z,22.00
2023-02-26T17:15:31.577Z,19.70
2023-02-26T17:18:03.277Z,18.20
2023-02-26T17:23:30.718Z,20.80
2023-02-26T17:26:02.489Z,22.50
2023-02-26T17:28:37.000Z,21.00
2023-02-26T17:31:05.532Z,24.50
2023-02-26T17:33:34.123Z,19.70
2023-02-26T17:36:05.989Z,24.40
2023-02-26T17:38:34.157Z,28.50
2023-02-26T17:41:02.352Z,26.10
2023-02-26T17:43:33.194Z,26.40
2023-02-26T17:46:02.033Z,31.20
2023-02-26T17:48:31.130Z,28.00
2023-02-26T17:51:01.336Z,29.60
2023-02-26T17:53:40.953Z,35.40
2023-02-26T17:56:27.034Z,32.60
2023-02-26T17:58:59.326Z,36.80
2023-02-26T18:01:29.158Z,30.80
2023-02-26T18:04:01.659Z,27.60
2023-02-26T18:06:34.730Z,27.90
2023-02-26T18:09:05.943Z,30.90
2023-02-26T18:11:35.667Z,30.80
2023-02-26T18:14:05.820Z,25.70
2023-02-26T18:16:40.208Z,30.60
2023-02-26T18:19:09.209Z,29.70
2023-02-26T18:21:37.469Z,35.20
2023-02-26T18:24:05.917Z,27.80
2023-02-26T18:26:34.030Z,30.10
2023-02-26T18:29:02.228Z,29.60
2023-02-26T18:31:35.231Z,28.60
2023-02-26T18:34:09.368Z,34.70
2023-02-26T18:36:40.429Z,28.80
2023-02-26T18:39:13.355Z,27.60
2023-02-26T18:41:42.582Z,29.60
2023-02-26T18:44:11.313Z,28.00
2023-02-26T18:46:41.941Z,34.90
2023-02-26T18:49:17.122Z,42.40
2023-02-26T18:51:48.159Z,26.50
2023-02-26T18:54:16.324Z,27.50
2023-02-26T18:56:47.865Z,26.90
2023-02-26T18:59:15.991Z,29.10
2023-02-26T19:01:48.110Z,28.40
2023-02-26T19:04:16.756Z,29.10
2023-02-26T19:06:50.514Z,26.80
2023-02-26T19:09:18.766Z,29.00
2023-02-26T19:11:46.798Z,28.70
2023-02-26T19:14:15.692Z,26.40
2023-02-26T19:16:44.507Z,25.60
2023-02-26T19:19:19.203Z,25.80
2023-02-26T19:21:47.707Z,28.40
2023-02-26T19:24:17.631Z,24.40
2023-02-26T19:26:45.808Z,30.40
2023-02-26T19:29:15.735Z,28.70
2023-02-26T19:31:44.287Z,28.60
2023-02-26T19:34:13.104Z,34.80
2023-02-26T19:36:48.189Z,30.30
2023-02-26T19:39:16.964Z,32.70
2023-02-26T19:41:46.151Z,32.50
2023-02-26T19:44:15.888Z,33.00
2023-02-26T19:46:44.066Z,33.30
2023-02-26T19:49:13.076Z,39.50
2023-02-26T19:51:41.302Z,33.80
2023-02-26T19:54:09.668Z,35.10
2023-02-26T19:56:37.712Z,31.90
2023-02-26T19:59:09.040Z,35.00
2023-02-26T20:01:37.606Z,30.70
2023-02-26T20:04:07.855Z,38.40
2023-02-26T20:06:38.241Z,30.30
2023-02-26T20:09:08.971Z,35.50
2023-02-26T20:11:38.252Z,36.00
2023-02-26T20:14:06.881Z,32.50
2023-02-26T20:16:36.190Z,29.40
2023-02-26T20:19:04.273Z,30.70
2023-02-26T20:21:34.189Z,35.30
2023-02-26T20:24:02.549Z,33.20
2023-02-26T20:26:32.716Z,39.20
2023-02-26T20:29:01.165Z,31.50
2023-02-26T20:31:30.814Z,33.20
2023-02-26T20:34:06.879Z,29.80
2023-02-26T20:36:35.600Z,35.60
2023-02-26T20:39:03.871Z,31.70
2023-02-26T20:41:31.876Z,32.20
2023-02-26T20:44:00.154Z,31.90
2023-02-26T20:46:29.989Z,32.80
2023-02-26T20:49:03.254Z,34.20
2023-02-26T20:51:31.890Z,34.80
2023-02-26T20:53:59.936Z,35.60
2023-02-26T20:56:28.541Z,38.00
2023-02-26T20:58:57.439Z,32.70
2023-02-26T21:01:26.255Z,34.50
2023-02-26T21:03:54.613Z,34.60
2023-02-26T21:06:23.167Z,39.10
2023-02-26T21:08:51.760Z,28.70
2023-02-26T21:11:20.762Z,28.20
2023-02-26T21:13:53.808Z,29.00
2023-02-26T21:16:22.081Z,28.80
2023-02-26T21:18:50.157Z,25.00
2023-02-26T21:21:19.329Z,26.70
2023-02-26T21:23:47.427Z,30.50
2023-02-26T21:26:15.993Z,20.80
2023-02-26T21:28:48.470Z,25.10
2023-02-26T21:31:22.219Z,20.80
2023-02-26T21:33:50.543Z,18.60
2023-02-26T21:36:18.666Z,20.40
2023-02-26T21:38:48.142Z,18.90
2023-02-26T21:41:16.700Z,17.80
2023-02-26T21:43:47.948Z,17.10
2023-02-26T21:46:16.298Z,17.20
2023-02-26T21:48:46.388Z,17.40
2023-02-26T21:51:15.974Z,15.70
2023-02-26T21:53:47.448Z,13.70
2023-02-26T21:56:15.939Z,11.80
2023-02-26T21:58:44.315Z,14.30
2023-02-26T22:01:12.954Z,15.70
2023-02-26T22:03:41.256Z,12.90
2023-02-26T22:06:09.949Z,15.50
2023-02-26T22:08:38.120Z,12.00
2023-02-26T22:11:11.806Z,10.20
2023-02-26T22:13:40.460Z,14.50
2023-02-26T22:16:08.531Z,12.40
2023-02-26T22:18:37.297Z,15.30
2023-02-26T22:21:06.367Z,17.20
2023-02-26T22:23:34.491Z,15.80
2023-02-26T22:26:02.614Z,12.80
2023-02-26T22:28:30.923Z,14.80
2023-02-26T22:30:59.557Z,21.40
2023-02-26T22:33:27.932Z,17.40
2023-02-26T22:35:57.841Z,16.20
2023-02-26T22:38:26.728Z,23.30
2023-02-26T22:40:54.762Z,18.40
2023-02-26T22:43:23.384Z,12.50
2023-02-26T22:45:53.389Z,14.20
2023-02-26T22:48:22.434Z,15.30
2023-02-26T22:50:50.972Z,14.80
2023-02-26T22:53:19.268Z,15.30
2023-02-26T22:55:47.648Z,14.40
2023-02-26T22:58:18.436Z,16.00
2023-02-26T23:00:46.520Z,13.60
2023-02-26T23:03:16.986Z,14.00
2023-02-26T23:05:45.819Z,18.50
2023-02-26T23:08:13.941Z,15.90
2023-02-26T23:10:42.516Z,15.10
2023-02-26T23:13:11.684Z,15.70
2023-02-26T23:15:39.833Z,16.80
2023-02-26T23:18:12.993Z,15.60
2023-02-26T23:20:54.697Z,17.80
2023-02-26T23:23:30.692Z,17.00
2023-02-26T23:25:58.711Z,13.00
2023-02-26T23:28:27.278Z,14.20
2023-02-26T23:30:55.572Z,15.20
2023-02-26T23:33:23.821Z,13.70
2023-02-26T23:35:52.681Z,12.40
2023-02-26T23:38:22.391Z,12.30
2023-02-26T23:40:51.097Z,12.40
2023-02-26T23:43:19.942Z,10.70
2023-02-26T23:45:49.404Z,15.30
2023-02-26T23:48:17.521Z,12.10
2023-02-26T23:50:48.263Z,11.90
2023-02-26T23:53:16.909Z,12.60
2023-02-26T23:55:46.243Z,12.30
2023-02-26T23:58:15.111Z,10.20
